createdAt,value
2023-04-01T00:01:17.878Z,7.90
2023-04-01T00:03:47.180Z,7.90
2023-04-01T00:06:19.042Z,7.80
2023-04-01T00:08:48.343Z,7.90
2023-04-01T00:11:17.215Z,7.80
2023-04-01T00:13:46.766Z,7.80
2023-04-01T00:16:22.276Z,7.70
2023-04-01T00:18:53.149Z,7.70
2023-04-01T00:21:50.348Z,7.80
2023-04-01T00:24:20.097Z,7.70
2023-04-01T00:26:50.686Z,7.70
2023-04-01T00:29:19.148Z,7.70
2023-04-01T00:31:48.287Z,7.70
2023-04-01T00:34:17.266Z,7.60
2023-04-01T00:36:47.953Z,7.70
2023-04-01T00:39:16.818Z,7.70
2023-04-01T00:41:45.645Z,7.60
2023-04-01T00:44:23.839Z,7.60
2023-04-01T00:46:54.523Z,7.70
2023-04-01T00:49:26.855Z,7.60
2023-04-01T00:51:59.388Z,7.60
2023-04-01T00:54:29.419Z,7.60
2023-04-01T00:57:03.227Z,7.60
2023-04-01T00:59:34.497Z,7.50
2023-04-01T01:02:05.114Z,7.60
2023-04-01T01:04:35.485Z,7.60
2023-04-01T01:07:16.085Z,7.50
2023-04-01T01:09:52.315Z,7.50
2023-04-01T01:12:24.630Z,7.60
2023-04-01T01:15:02.550Z,7.70
2023-04-01T01:17:46.486Z,7.70
2023-04-01T01:20:44.184Z,7.30
2023-04-01T01:23:45.713Z,7.60
2023-04-01T01:26:36.988Z,7.80
2023-04-01T01:29:16.457Z,7.70
2023-04-01T01:31:53.438Z,7.70
2023-04-01T01:34:26.236Z,7.70
2023-04-01T01:37:11.794Z,6.20
2023-04-01T01:39:41.707Z,7.80
2023-04-01T01:42:13.868Z,7.70
2023-04-01T01:44:44.918Z,7.70
2023-04-01T01:47:14.167Z,7.80
2023-04-01T01:49:47.428Z,7.80
2023-04-01T01:52:20.290Z,7.80
2023-04-01T01:54:51.982Z,7.80
2023-04-01T01:57:25.842Z,7.70
2023-04-01T01:59:58.531Z,8.10
2023-04-01T02:02:33.092Z,7.70
2023-04-01T02:05:02.138Z,7.80
2023-04-01T02:07:38.313Z,7.70
2023-04-01T02:10:09.985Z,7.70
2023-04-01T02:12:40.840Z,7.80
2023-04-01T02:15:12.771Z,7.70
2023-04-01T02:17:45.945Z,7.80
2023-04-01T02:20:18.770Z,7.80
2023-04-01T02:22:52.910Z,7.70
2023-04-01T02:25:25.079Z,7.80
2023-04-01T02:27:55.484Z,6.50
2023-04-01T02:30:24.252Z,7.70
2023-04-01T02:32:53.719Z,7.80
2023-04-01T02:35:22.599Z,7.80
2023-04-01T02:37:56.590Z,7.90
2023-04-01T02:40:25.734Z,7.80
2023-04-01T02:42:54.408Z,7.80
2023-04-01T02:45:23.545Z,7.80
2023-04-01T02:47:52.574Z,7.80
2023-04-01T02:50:23.570Z,7.80
2023-04-01T02:52:54.692Z,7.80
2023-04-01T02:55:23.857Z,7.80
2023-04-01T02:57:52.990Z,7.70
2023-04-01T03:00:22.650Z,7.80
2023-04-01T03:02:51.810Z,7.80
2023-04-01T03:05:20.775Z,7.80
2023-04-01T03:07:49.361Z,7.80
2023-04-01T03:15:45.814Z,7.80
2023-04-01T03:18:14.141Z,7.80
2023-04-01T03:20:42.868Z,7.80
2023-04-01T03:23:11.612Z,7.70
2023-04-01T03:25:41.648Z,7.60
2023-04-01T03:28:10.083Z,7.70
2023-04-01T03:30:38.381Z,7.70
2023-04-01T03:33:09.095Z,7.70
2023-04-01T03:35:37.558Z,7.60
2023-04-01T03:38:06.152Z,7.60
2023-04-01T03:43:23.097Z,7.50
2023-04-01T03:45:55.592Z,7.50
2023-04-01T03:48:35.684Z,7.50
2023-04-01T03:51:10.619Z,7.40
2023-04-01T03:53:39.220Z,7.30
2023-04-01T03:56:18.965Z,7.40
2023-04-01T03:58:48.873Z,7.70
2023-04-01T04:01:21.793Z,7.40
2023-04-01T04:03:51.499Z,7.40
2023-04-01T04:06:21.358Z,7.30
2023-04-01T04:08:50.099Z,7.40
2023-04-01T04:11:18.836Z,7.30
2023-04-01T04:13:48.988Z,7.30
2023-04-01T04:16:17.805Z,7.30
2023-04-01T04:18:46.090Z,7.30
2023-04-01T04:21:15.738Z,7.90
2023-04-01T04:23:44.383Z,7.30
2023-04-01T04:26:14.529Z,7.20
2023-04-01T04:28:43.405Z,7.30
2023-04-01T04:31:13.130Z,7.40
2023-04-01T04:33:41.196Z,6.90
2023-04-01T04:36:10.099Z,7.30
2023-04-01T04:38:38.234Z,7.10
2023-04-01T04:41:11.375Z,8.10
2023-04-01T04:43:39.691Z,7.30
2023-04-01T04:46:08.992Z,7.30
2023-04-01T04:48:38.444Z,7.40
2023-04-01T04:51:06.752Z,7.20
2023-04-01T04:53:34.914Z,7.50
2023-04-01T04:56:02.930Z,7.40
2023-04-01T04:58:30.948Z,7.50
2023-04-01T05:00:59.012Z,7.50
2023-04-01T05:03:27.222Z,7.20
2023-04-01T05:05:56.835Z,7.80
2023-04-01T05:08:24.877Z,7.60
2023-04-01T05:10:52.986Z,7.50
2023-04-01T05:13:21.018Z,7.70
2023-04-01T05:15:54.528Z,7.60
2023-04-01T05:18:22.909Z,7.80
2023-04-01T05:20:53.703Z,7.70
2023-04-01T05:23:25.315Z,7.60
2023-04-01T05:25:54.493Z,7.50
2023-04-01T05:28:25.528Z,7.70
2023-04-01T05:30:53.707Z,7.80
2023-04-01T05:33:21.676Z,7.80
2023-04-01T05:35:49.717Z,7.80
2023-04-01T05:38:17.840Z,7.90
2023-04-01T05:40:47.265Z,7.70
2023-04-01T05:43:15.469Z,7.90
2023-04-01T05:45:43.500Z,7.90
2023-04-01T05:48:11.530Z,8.10
2023-04-01T05:50:41.552Z,8.00
2023-04-01T05:53:09.871Z,8.10
2023-04-01T05:55:37.889Z,8.20
2023-04-01T05:58:09.181Z,8.00
2023-04-01T06:00:37.283Z,7.90
2023-04-01T06:03:05.328Z,8.80
2023-04-01T06:05:41.444Z,8.10
2023-04-01T06:08:13.683Z,8.00
2023-04-01T06:10:53.283Z,7.60
2023-04-01T06:13:35.730Z,8.80
2023-04-01T06:16:17.866Z,9.40
2023-04-01T06:18:59.350Z,8.00
2023-04-01T06:22:01.820Z,8.00
2023-04-01T06:24:46.617Z,8.20
2023-04-01T06:27:27.249Z,9.00
2023-04-01T06:30:08.471Z,8.10
2023-04-01T06:33:00.743Z,8.10
2023-04-01T06:36:04.842Z,8.40
2023-04-01T06:38:44.657Z,8.20
2023-04-01T06:41:40.369Z,8.30
2023-04-01T06:44:20.452Z,8.80
2023-04-01T06:46:55.429Z,8.30
2023-04-01T06:52:07.968Z,8.50
2023-04-01T06:54:40.700Z,7.50
2023-04-01T06:57:27.893Z,8.40
2023-04-01T06:59:59.695Z,8.50
2023-04-01T07:02:40.795Z,8.40
2023-04-01T07:05:12.124Z,8.60
2023-04-01T07:07:45.236Z,8.70
2023-04-01T07:10:20.074Z,8.80
2023-04-01T07:12:54.679Z,8.90
2023-04-01T07:15:27.209Z,9.00
2023-04-01T07:18:02.324Z,9.10
2023-04-01T07:20:33.805Z,9.20
2023-04-01T07:23:04.401Z,9.20
2023-04-01T07:25:36.441Z,9.20
2023-04-01T07:28:07.973Z,10.40
2023-04-01T07:30:50.759Z,9.10
2023-04-01T07:33:27.241Z,9.70
2023-04-01T07:36:05.158Z,9.10
2023-04-01T07:38:45.340Z,9.10
2023-04-01T07:41:18.295Z,9.20
2023-04-01T07:43:57.008Z,9.30
2023-04-01T07:46:37.305Z,11.20
2023-04-01T07:49:11.429Z,10.50
2023-04-01T07:51:49.690Z,9.40
2023-04-01T07:54:26.793Z,9.40
2023-04-01T07:57:01.459Z,9.50
2023-04-01T07:59:35.129Z,9.50
2023-04-01T08:02:10.982Z,9.60
2023-04-01T08:04:54.106Z,9.60
2023-04-01T08:07:27.044Z,9.70
2023-04-01T08:10:01.910Z,9.60
2023-04-01T08:12:41.148Z,9.60
2023-04-01T08:15:17.891Z,9.60
2023-04-01T08:17:56.893Z,9.70
2023-04-01T08:20:34.502Z,9.70
2023-04-01T08:23:09.372Z,9.70
2023-04-01T08:25:40.997Z,9.60
2023-04-01T08:28:17.450Z,9.80
2023-04-01T08:30:50.066Z,10.00
2023-04-01T08:33:23.380Z,10.00
2023-04-01T08:36:00.933Z,10.70
2023-04-01T08:38:33.111Z,9.70
2023-04-01T08:41:03.330Z,9.80
2023-04-01T08:43:54.297Z,9.80
2023-04-01T08:46:53.852Z,9.40
2023-04-01T08:49:40.889Z,10.30
2023-04-01T08:52:37.483Z,10.00
2023-04-01T08:55:23.622Z,11.40
2023-04-01T08:58:06.012Z,10.30
2023-04-01T09:00:39.730Z,10.40
2023-04-01T09:03:39.576Z,10.40
2023-04-01T09:06:36.499Z,10.40
2023-04-01T09:09:34.141Z,10.70
2023-04-01T09:12:20.833Z,11.70
2023-04-01T09:15:16.020Z,10.80
2023-04-01T09:18:07.791Z,10.70
2023-04-01T09:21:05.744Z,10.90
2023-04-01T09:23:58.179Z,11.20
2023-04-01T09:27:00.107Z,11.50
2023-04-01T09:29:54.379Z,11.20
2023-04-01T09:32:58.163Z,11.30
2023-04-01T09:35:28.789Z,11.30
2023-04-01T09:38:11.828Z,13.40
2023-04-01T09:40:47.622Z,11.80
2023-04-01T09:43:41.460Z,11.50
2023-04-01T09:46:21.376Z,11.20
2023-04-01T09:49:25.852Z,11.10
2023-04-01T09:52:10.474Z,11.20
2023-04-01T09:54:57.301Z,12.50
2023-04-01T09:57:50.893Z,11.30
2023-04-01T10:01:00.340Z,11.60
2023-04-01T10:04:11.482Z,11.70
2023-04-01T10:07:16.121Z,12.90
2023-04-01T10:10:09.767Z,11.80
2023-04-01T10:13:03.703Z,11.80
2023-04-01T10:16:10.621Z,12.10
2023-04-01T10:19:07.892Z,11.70
2023-04-01T10:22:28.005Z,11.40
2023-04-01T10:25:24.992Z,11.60
2023-04-01T10:28:27.182Z,11.50
2023-04-01T10:31:32.681Z,11.50
2023-04-01T10:34:36.608Z,10.00
2023-04-01T10:37:17.970Z,11.50
2023-04-01T10:40:23.855Z,11.70
2023-04-01T10:43:39.316Z,11.60
2023-04-01T10:46:31.638Z,11.60
2023-04-01T10:49:29.349Z,13.90
2023-04-01T10:52:39.148Z,11.50
2023-04-01T10:55:38.438Z,11.40
2023-04-01T10:58:38.706Z,11.40
2023-04-01T11:01:28.679Z,11.30
2023-04-01T11:04:47.201Z,11.10
2023-04-01T11:08:06.123Z,12.80
2023-04-01T11:11:03.649Z,10.70
2023-04-01T11:14:19.849Z,10.70
2023-04-01T11:17:29.317Z,10.80
2023-04-01T11:20:18.984Z,10.60
2023-04-01T11:23:09.103Z,11.50
2023-04-01T11:25:57.442Z,10.20
2023-04-01T11:28:58.053Z,10.80
2023-04-01T11:31:39.333Z,11.90
2023-04-01T11:34:19.419Z,10.80
2023-04-01T11:37:01.004Z,10.70
2023-04-01T11:39:36.616Z,11.70
2023-04-01T11:42:18.768Z,10.60
2023-04-01T11:44:57.655Z,11.10
2023-04-01T11:47:41.917Z,10.60
2023-04-01T11:50:33.038Z,12.50
2023-04-01T11:53:12.809Z,10.60
2023-04-01T11:55:52.419Z,9.90
2023-04-01T11:58:45.891Z,9.70
2023-04-01T12:01:27.471Z,9.40
2023-04-01T12:04:25.501Z,11.20
2023-04-01T12:07:06.223Z,9.10
2023-04-01T12:09:46.304Z,9.10
2023-04-01T12:12:21.998Z,8.90
2023-04-01T12:15:02.572Z,8.90
2023-04-01T12:17:39.301Z,8.70
2023-04-01T12:20:30.470Z,8.60
2023-04-01T12:23:06.230Z,8.50
2023-04-01T12:25:51.763Z,10.40
2023-04-01T12:28:26.766Z,8.50
2023-04-01T12:31:09.151Z,8.40
2023-04-01T12:34:13.956Z,9.50
2023-04-01T12:36:55.836Z,8.50
2023-04-01T12:39:40.393Z,8.40
2023-04-01T12:42:20.568Z,8.30
2023-04-01T12:45:14.465Z,10.20
2023-04-01T12:48:04.254Z,8.60
2023-04-01T12:50:52.640Z,10.30
2023-04-01T12:53:43.414Z,9.00
2023-04-01T12:56:16.774Z,8.40
2023-04-01T12:59:19.451Z,8.40
2023-04-01T13:02:03.748Z,8.60
2023-04-01T13:05:06.398Z,8.40
2023-04-01T13:07:55.411Z,8.60
2023-04-01T13:10:37.163Z,8.40
2023-04-01T13:13:42.377Z,8.40
2023-04-01T13:16:17.534Z,8.50
2023-04-01T13:19:01.419Z,8.30
2023-04-01T13:21:41.307Z,8.30
2023-04-01T13:24:20.737Z,8.30
2023-04-01T13:26:58.763Z,8.30
2023-04-01T13:29:33.845Z,8.50
2023-04-01T13:32:22.260Z,8.40
2023-04-01T13:35:11.250Z,8.50
2023-04-01T13:37:54.429Z,8.90
2023-04-01T13:40:44.588Z,8.40
2023-04-01T13:43:24.318Z,8.40
2023-04-01T13:46:34.712Z,8.50
2023-04-01T13:49:37.574Z,8.70
2023-04-01T13:52:36.666Z,8.50
2023-04-01T13:55:28.856Z,8.60
2023-04-01T13:58:33.388Z,8.60
2023-04-01T14:01:08.759Z,8.80
2023-04-01T14:03:50.448Z,8.50
2023-04-01T14:06:33.417Z,8.60
2023-04-01T14:09:19.852Z,8.80
2023-04-01T14:11:58.907Z,8.80
2023-04-01T14:14:43.306Z,9.00
2023-04-01T14:17:26.626Z,8.90
2023-04-01T14:20:12.897Z,8.90
2023-04-01T14:22:45.383Z,10.10
2023-04-01T14:25:35.022Z,8.60
2023-04-01T14:28:17.685Z,8.80
2023-04-01T14:31:03.105Z,9.90
2023-04-01T14:33:44.472Z,9.10
2023-04-01T14:36:40.232Z,8.90
2023-04-01T14:39:34.632Z,8.90
2023-04-01T14:42:22.151Z,9.80
2023-04-01T14:45:22.971Z,9.10
2023-04-01T14:47:54.979Z,9.60
2023-04-01T14:50:30.211Z,9.20
2023-04-01T14:53:13.771Z,9.30
2023-04-01T14:55:51.956Z,8.10
2023-04-01T14:58:22.877Z,10.60
2023-04-01T15:00:58.801Z,9.30
2023-04-01T15:03:32.611Z,9.30
2023-04-01T15:06:29.820Z,9.30
2023-04-01T15:09:02.956Z,9.80
2023-04-01T15:11:42.114Z,9.40
2023-04-01T15:14:45.999Z,9.40
2023-04-01T15:17:46.819Z,9.30
2023-04-01T15:20:33.706Z,9.70
2023-04-01T15:23:15.936Z,9.30
2023-04-01T15:26:20.849Z,9.20
2023-04-01T15:29:08.921Z,9.40
2023-04-01T15:31:44.853Z,9.30
2023-04-01T15:34:29.190Z,9.20
2023-04-01T15:37:06.705Z,9.20
2023-04-01T15:39:53.837Z,9.20
2023-04-01T15:42:36.650Z,9.40
2023-04-01T15:45:19.585Z,9.50
2023-04-01T15:48:01.345Z,9.10
2023-04-01T15:50:56.143Z,9.30
2023-04-01T15:54:10.503Z,9.60
2023-04-01T15:56:56.186Z,9.70
2023-04-01T15:59:39.620Z,9.50
2023-04-01T16:02:17.853Z,9.40
2023-04-01T16:04:54.663Z,9.50
2023-04-01T16:07:38.804Z,10.40
2023-04-01T16:10:24.069Z,9.90
2023-04-01T16:13:06.291Z,9.80
2023-04-01T16:15:41.726Z,9.80
2023-04-01T16:18:33.308Z,9.60
2023-04-01T16:21:06.899Z,9.70
2023-04-01T16:23:42.100Z,9.80
2023-04-01T16:26:17.207Z,9.90
2023-04-01T16:29:27.836Z,9.80
2023-04-01T16:32:05.352Z,9.80
2023-04-01T16:34:40.549Z,9.80
2023-04-01T16:37:16.993Z,9.80
2023-04-01T16:39:52.128Z,9.80
2023-04-01T16:42:33.538Z,9.70
2023-04-01T16:45:21.627Z,9.70
2023-04-01T16:47:55.162Z,9.60
2023-04-01T16:50:32.142Z,9.70
2023-04-01T16:53:13.502Z,9.60
2023-04-01T16:55:57.366Z,9.70
2023-04-01T17:01:48.468Z,9.50
2023-04-01T17:04:40.786Z,9.80
2023-04-01T17:10:03.370Z,9.50
2023-04-01T17:16:15.200Z,9.40
2023-04-01T17:18:52.473Z,9.90
2023-04-01T17:21:30.648Z,9.40
2023-04-01T17:24:12.426Z,9.30
2023-04-01T17:26:48.021Z,9.30
2023-04-01T17:29:26.782Z,9.30
2023-04-01T17:32:08.581Z,9.30
2023-04-01T17:34:51.828Z,9.20
2023-04-01T17:37:47.920Z,9.10
2023-04-01T17:40:39.613Z,9.40
2023-04-01T17:43:17.537Z,9.30
2023-04-01T17:45:51.781Z,9.20
2023-04-01T17:48:34.214Z,9.20
2023-04-01T17:51:21.945Z,9.30
2023-04-01T17:54:00.183Z,9.10
2023-04-01T17:56:44.706Z,9.50
2023-04-01T17:59:23.707Z,9.10
2023-04-01T18:02:10.104Z,9.20
2023-04-01T18:05:03.962Z,9.30
2023-04-01T18:07:58.002Z,9.60
2023-04-01T18:10:32.985Z,9.20
2023-04-01T18:13:41.323Z,9.20
2023-04-01T18:16:23.718Z,9.10
2023-04-01T18:19:00.858Z,9.40
2023-04-01T18:21:43.144Z,9.30
2023-04-01T18:24:20.717Z,9.20
2023-04-01T18:26:53.612Z,9.20
2023-04-01T18:29:34.905Z,9.20
2023-04-01T18:32:16.743Z,9.30
2023-04-01T18:34:55.417Z,9.20
2023-04-01T18:37:30.879Z,9.00
2023-04-01T18:40:06.045Z,9.10
2023-04-01T18:42:45.679Z,9.20
2023-04-01T18:45:22.861Z,9.00
2023-04-01T18:48:02.196Z,9.20
2023-04-01T18:50:38.229Z,9.00
2023-04-01T18:53:21.331Z,10.60
2023-04-01T18:55:53.731Z,9.00
2023-04-01T18:58:27.829Z,10.40
2023-04-01T19:01:10.105Z,8.90
2023-04-01T19:03:45.356Z,10.50
2023-04-01T19:06:20.966Z,9.40
2023-04-01T19:08:50.986Z,10.50
2023-04-01T19:11:29.657Z,8.80
2023-04-01T19:14:05.465Z,8.90
2023-04-01T19:16:48.536Z,8.90
2023-04-01T19:19:32.664Z,8.80
2023-04-01T19:22:03.091Z,8.80
2023-04-01T19:25:00.738Z,9.00
2023-04-01T19:27:35.532Z,8.70
2023-04-01T19:30:25.629Z,8.70
2023-04-01T19:33:03.576Z,8.60
2023-04-01T19:35:40.687Z,9.70
2023-04-01T19:38:17.620Z,9.60
2023-04-01T19:40:54.292Z,8.60
2023-04-01T19:43:37.637Z,8.70
2023-04-01T19:46:16.198Z,8.60
2023-04-01T19:48:55.676Z,8.40
2023-04-01T19:51:31.408Z,8.60
2023-04-01T19:54:06.298Z,8.50
2023-04-01T19:56:42.161Z,8.50
2023-04-01T19:59:19.121Z,7.70
2023-04-01T20:01:52.774Z,8.50
2023-04-01T20:04:29.980Z,8.50
2023-04-01T20:07:03.563Z,8.40
2023-04-01T20:09:56.156Z,8.40
2023-04-01T20:12:47.396Z,9.80
2023-04-01T20:15:26.417Z,8.30
2023-04-01T20:17:56.555Z,8.40
2023-04-01T20:20:29.255Z,8.10
2023-04-01T20:23:07.456Z,8.30
2023-04-01T20:25:43.988Z,8.40
2023-04-01T20:28:22.048Z,8.20
2023-04-01T20:31:04.576Z,8.20
2023-04-01T20:33:55.399Z,10.70
2023-04-01T20:36:29.069Z,8.40
2023-04-01T20:39:37.678Z,8.80
2023-04-01T20:42:26.255Z,8.40
2023-04-01T20:45:11.498Z,8.40
2023-04-01T20:47:54.409Z,8.80
2023-04-01T20:50:28.676Z,9.20
2023-04-01T20:53:02.334Z,8.50
2023-04-01T20:56:10.253Z,8.10
2023-04-01T20:58:49.318Z,8.00
2023-04-01T21:01:30.658Z,8.10
2023-04-01T21:04:12.005Z,8.10
2023-04-01T21:07:12.173Z,8.10
2023-04-01T21:09:54.965Z,8.20
2023-04-01T21:12:32.207Z,8.10
2023-04-01T21:15:21.174Z,8.10
2023-04-01T21:18:06.573Z,8.10
2023-04-01T21:21:02.016Z,8.10
2023-04-01T21:23:44.203Z,8.90
2023-04-01T21:26:26.137Z,7.90
2023-04-01T21:29:11.163Z,8.80
2023-04-01T21:32:01.766Z,8.00
2023-04-01T21:34:54.588Z,8.10
2023-04-01T21:38:00.756Z,8.50
2023-04-01T21:41:10.486Z,8.60
2023-04-01T21:44:15.224Z,8.20
2023-04-01T21:47:18.994Z,8.20
2023-04-01T21:50:11.759Z,8.10
2023-04-01T21:53:16.425Z,8.20
2023-04-01T21:56:24.037Z,8.30
2023-04-01T21:59:42.781Z,8.40
2023-04-01T22:02:47.425Z,8.30
2023-04-01T22:05:24.467Z,8.20
2023-04-01T22:08:01.391Z,8.10
2023-04-01T22:10:35.747Z,8.00
2023-04-01T22:13:14.671Z,8.20
2023-04-01T22:16:02.053Z,8.20
2023-04-01T22:18:35.837Z,8.10
2023-04-01T22:21:11.633Z,8.20
2023-04-01T22:23:45.721Z,8.10
2023-04-01T22:26:25.065Z,8.20
2023-04-01T22:29:02.500Z,8.10
2023-04-01T22:37:40.732Z,8.00
2023-04-01T22:40:24.654Z,8.10
2023-04-01T22:42:58.349Z,8.70
2023-04-01T22:46:05.409Z,8.10
2023-04-01T22:48:42.182Z,8.10
2023-04-01T22:51:17.877Z,8.10
2023-04-01T22:54:03.649Z,8.20
2023-04-01T22:56:37.252Z,8.40
2023-04-01T22:59:12.416Z,8.20
2023-04-01T23:01:47.922Z,8.10
2023-04-01T23:04:19.563Z,8.10
2023-04-01T23:06:54.183Z,8.00
2023-04-01T23:09:26.031Z,7.90
2023-04-01T23:11:57.549Z,8.10
2023-04-01T23:14:47.411Z,8.10
2023-04-01T23:17:28.829Z,8.20
2023-04-01T23:20:04.583Z,8.00
2023-04-01T23:22:38.015Z,8.10
2023-04-01T23:25:20.284Z,8.10
2023-04-01T23:27:54.396Z,8.00
2023-04-01T23:30:51.600Z,7.90
2023-04-01T23:33:25.897Z,8.20
2023-04-01T23:35:56.598Z,7.90
2023-04-01T23:38:27.299Z,8.00
2023-04-01T23:40:57.665Z,7.90
2023-04-01T23:43:29.009Z,7.30
2023-04-01T23:45:58.134Z,8.00
2023-04-01T23:48:32.829Z,8.00
2023-04-01T23:51:01.315Z,8.00
2023-04-01T23:53:32.830Z,8.00
2023-04-01T23:56:04.300Z,7.90
2023-04-01T23:58:44.930Z,8.00
